createdAt,value
2019-01-11T00:01:44.849Z,13.70
2019-01-11T00:04:14.279Z,13.38
2019-01-11T00:06:43.648Z,15.80
2019-01-11T00:09:13.006Z,18.03
2019-01-11T00:11:42.518Z,17.27
2019-01-11T00:14:11.877Z,16.27
2019-01-11T00:16:41.502Z,15.97
2019-01-11T00:19:10.856Z,16.07
2019-01-11T00:21:40.230Z,19.37
2019-01-11T00:24:09.635Z,14.47
2019-01-11T00:26:39.254Z,16.93
2019-01-11T00:29:08.928Z,17.77
2019-01-11T00:31:38.272Z,19.98
2019-01-11T00:34:07.671Z,19.70
2019-01-11T00:36:37.067Z,20.00
2019-01-11T00:39:07.936Z,20.90
2019-01-11T00:41:37.317Z,29.23
2019-01-11T00:44:06.672Z,22.20
2019-01-11T00:46:36.112Z,27.00
2019-01-11T00:49:06.216Z,19.57
2019-01-11T00:51:35.583Z,22.67
2019-01-11T00:54:06.072Z,29.47
2019-01-11T00:56:35.453Z,26.23
2019-01-11T00:59:05.688Z,24.87
2019-01-11T01:01:35.062Z,31.47
2019-01-11T01:04:04.846Z,26.23
2019-01-11T01:06:34.281Z,25.80
2019-01-11T01:09:05.873Z,25.87
2019-01-11T01:11:35.326Z,28.73
2019-01-11T01:14:04.841Z,21.80
2019-01-11T01:16:34.279Z,27.07
2019-01-11T01:19:03.718Z,27.63
2019-01-11T01:21:33.333Z,26.70
2019-01-11T01:24:03.111Z,30.35
2019-01-11T01:26:32.796Z,25.93
2019-01-11T01:29:02.426Z,27.83
2019-01-11T01:31:31.773Z,26.12
2019-01-11T01:34:01.161Z,26.80
2019-01-11T01:36:30.530Z,25.37
2019-01-11T01:38:59.907Z,25.47
2019-01-11T01:41:29.273Z,25.53
2019-01-11T01:43:58.953Z,25.83
2019-01-11T01:46:28.579Z,26.65
2019-01-11T01:48:57.966Z,22.97
2019-01-11T01:51:27.397Z,29.50
2019-01-11T01:53:57.725Z,23.63
2019-01-11T01:56:27.095Z,25.93
2019-01-11T01:58:56.738Z,32.77
2019-01-11T02:01:26.112Z,20.90
2019-01-11T02:03:55.732Z,22.40
2019-01-11T02:06:25.090Z,25.20
2019-01-11T02:08:54.471Z,21.35
2019-01-11T02:11:23.832Z,25.73
2019-01-11T02:13:53.214Z,21.40
2019-01-11T02:16:22.587Z,20.97
2019-01-11T02:18:51.955Z,23.18
2019-01-11T02:21:21.326Z,21.27
2019-01-11T02:23:50.705Z,29.17
2019-01-11T02:26:20.078Z,25.23
2019-01-11T02:28:49.436Z,25.60
2019-01-11T02:31:19.112Z,19.83
2019-01-11T02:33:49.710Z,22.73
2019-01-11T02:36:19.158Z,20.03
2019-01-11T02:38:48.545Z,18.70
2019-01-11T02:41:17.922Z,18.73
2019-01-11T02:43:47.303Z,18.43
2019-01-11T02:46:16.677Z,17.27
2019-01-11T02:48:46.049Z,18.40
2019-01-11T02:51:15.738Z,17.65
2019-01-11T02:53:45.177Z,19.60
2019-01-11T02:56:14.560Z,22.23
2019-01-11T02:58:43.927Z,23.43
2019-01-11T03:01:13.470Z,21.33
2019-01-11T03:03:44.222Z,24.70
2019-01-11T03:06:13.819Z,22.87
2019-01-11T03:08:43.193Z,21.80
2019-01-11T03:11:12.594Z,23.40
2019-01-11T03:13:41.952Z,25.67
2019-01-11T03:16:11.568Z,26.97
2019-01-11T03:18:40.937Z,26.70
2019-01-11T03:21:10.312Z,24.87
2019-01-11T03:23:39.683Z,26.70
2019-01-11T03:26:09.059Z,27.13
2019-01-11T03:28:38.429Z,24.53
2019-01-11T03:31:09.468Z,26.82
2019-01-11T03:33:38.836Z,22.93
2019-01-11T03:36:08.224Z,30.73
2019-01-11T03:38:37.859Z,23.50
2019-01-11T03:41:07.295Z,23.65
2019-01-11T03:43:36.610Z,28.20
2019-01-11T03:46:06.295Z,24.30
2019-01-11T03:48:35.668Z,24.97
2019-01-11T03:51:05.047Z,25.47
2019-01-11T03:53:34.654Z,24.32
2019-01-11T03:56:04.030Z,32.27
2019-01-11T03:58:33.396Z,23.17
2019-01-11T04:01:02.789Z,26.47
2019-01-11T04:03:32.154Z,30.30
2019-01-11T04:06:01.809Z,27.65
2019-01-11T04:08:31.179Z,26.20
2019-01-11T04:11:00.553Z,24.18
2019-01-11T04:13:30.606Z,24.53
2019-01-11T04:16:02.918Z,28.07
2019-01-11T04:18:33.239Z,27.40
2019-01-11T04:21:02.623Z,22.82
2019-01-11T04:23:32.720Z,25.90
2019-01-11T04:26:02.179Z,24.13
2019-01-11T04:28:31.551Z,18.80
2019-01-11T04:31:00.942Z,21.20
2019-01-11T04:33:30.374Z,20.90
2019-01-11T04:35:59.754Z,22.53
2019-01-11T04:38:29.444Z,21.82
2019-01-11T04:40:58.836Z,20.77
2019-01-11T04:43:28.229Z,20.73
2019-01-11T04:45:57.774Z,21.67
2019-01-11T04:48:27.150Z,18.57
2019-01-11T04:50:59.700Z,22.80
2019-01-11T04:53:29.963Z,17.92
2019-01-11T04:55:59.657Z,20.37
2019-01-11T04:58:29.276Z,21.90
2019-01-11T05:00:58.653Z,21.67
2019-01-11T05:03:28.048Z,20.30
2019-01-11T05:05:57.420Z,16.90
2019-01-11T05:08:26.802Z,16.70
2019-01-11T05:10:56.175Z,18.73
2019-01-11T05:13:37.012Z,19.77
2019-01-11T05:16:06.537Z,23.17
2019-01-11T05:18:35.993Z,17.87
2019-01-11T05:21:05.838Z,22.30
2019-01-11T05:23:35.235Z,17.70
2019-01-11T05:26:06.240Z,18.73
2019-01-11T05:28:35.609Z,15.73
2019-01-11T05:31:05.054Z,18.13
2019-01-11T05:33:34.682Z,17.67
2019-01-11T05:36:04.085Z,18.67
2019-01-11T05:38:33.450Z,16.47
2019-01-11T05:41:02.825Z,18.43
2019-01-11T05:43:32.206Z,16.00
2019-01-11T05:46:01.576Z,17.30
2019-01-11T05:48:30.944Z,20.17
2019-01-11T05:51:00.373Z,14.10
2019-01-11T05:53:29.752Z,16.63
2019-01-11T05:56:00.767Z,17.07
2019-01-11T05:58:31.304Z,14.20
2019-01-11T06:01:00.930Z,17.53
2019-01-11T06:03:30.379Z,16.00
2019-01-11T06:05:59.764Z,13.30
2019-01-11T06:08:29.214Z,13.87
2019-01-11T06:10:58.658Z,13.87
2019-01-11T06:13:28.041Z,12.27
2019-01-11T06:15:57.482Z,14.17
2019-01-11T06:18:26.880Z,12.33
2019-01-11T06:20:56.576Z,13.13
2019-01-11T06:23:25.972Z,17.83
2019-01-11T06:25:58.334Z,13.10
2019-01-11T06:28:27.716Z,14.50
2019-01-11T06:30:57.093Z,12.13
2019-01-11T06:33:27.956Z,14.70
2019-01-11T06:35:57.333Z,13.10
2019-01-11T06:38:26.725Z,13.77
2019-01-11T06:40:56.120Z,13.50
2019-01-11T06:43:25.488Z,12.13
2019-01-11T06:45:54.882Z,13.55
2019-01-11T06:48:26.174Z,12.40
2019-01-11T06:50:55.551Z,11.23
2019-01-11T06:53:25.032Z,11.47
2019-01-11T06:55:54.423Z,13.10
2019-01-11T06:58:23.791Z,14.93
2019-01-11T07:00:53.187Z,12.50
2019-01-11T07:03:28.623Z,14.03
2019-01-11T07:05:58.001Z,12.43
2019-01-11T07:08:27.452Z,18.23
2019-01-11T07:10:57.084Z,12.50
2019-01-11T07:13:26.502Z,18.87
2019-01-11T07:15:55.972Z,12.77
2019-01-11T07:18:25.587Z,14.30
2019-01-11T07:20:55.037Z,15.47
2019-01-11T07:23:24.404Z,12.27
2019-01-11T07:25:54.062Z,14.83
2019-01-11T07:28:23.443Z,13.03
2019-01-11T07:30:54.448Z,15.83
2019-01-11T07:33:23.848Z,17.00
2019-01-11T07:35:54.922Z,15.17
2019-01-11T07:38:24.293Z,15.07
2019-01-11T07:40:53.729Z,15.10
2019-01-11T07:43:23.129Z,14.80
2019-01-11T07:45:52.519Z,14.73
2019-01-11T07:48:21.898Z,17.07
2019-01-11T07:50:51.606Z,15.13
2019-01-11T07:53:20.980Z,21.80
2019-01-11T07:55:50.426Z,17.27
2019-01-11T07:58:19.823Z,18.33
2019-01-11T08:00:49.586Z,16.50
2019-01-11T08:03:18.966Z,14.80
2019-01-11T08:05:48.361Z,16.03
2019-01-11T08:08:17.732Z,14.03
2019-01-11T08:10:47.120Z,14.87
2019-01-11T08:13:16.490Z,17.20
2019-01-11T08:15:45.876Z,19.43
2019-01-11T08:18:15.266Z,13.73
2019-01-11T08:20:44.652Z,17.97
2019-01-11T08:23:14.026Z,13.43
2019-01-11T08:25:43.406Z,15.23
2019-01-11T08:28:14.080Z,15.95
2019-01-11T08:30:43.433Z,15.23
2019-01-11T08:33:18.517Z,16.37
2019-01-11T08:35:43.954Z,13.03
2019-01-11T08:38:14.176Z,18.30
2019-01-11T08:40:43.804Z,18.97
2019-01-11T08:43:15.155Z,13.83
2019-01-11T08:45:44.568Z,14.20
2019-01-11T08:48:15.485Z,16.73
2019-01-11T08:50:46.762Z,14.73
2019-01-11T08:53:16.139Z,12.83
2019-01-11T08:55:45.887Z,13.23
2019-01-11T08:58:15.268Z,13.37
2019-01-11T09:00:45.495Z,11.67
2019-01-11T09:03:15.166Z,12.00
2019-01-11T09:05:44.545Z,15.90
2019-01-11T09:08:13.926Z,12.30
2019-01-11T09:10:43.336Z,15.83
2019-01-11T09:13:12.717Z,13.33
2019-01-11T09:15:42.100Z,14.73
2019-01-11T09:18:13.400Z,11.57
2019-01-11T09:20:42.851Z,15.50
2019-01-11T09:23:12.242Z,12.57
2019-01-11T09:25:41.621Z,14.67
2019-01-11T09:28:11.380Z,11.70
2019-01-11T09:30:40.749Z,11.87
2019-01-11T09:33:10.147Z,13.47
2019-01-11T09:35:39.519Z,11.90
2019-01-11T09:38:08.945Z,12.03
2019-01-11T09:40:38.607Z,10.78
2019-01-11T09:43:08.022Z,11.10
2019-01-11T09:45:37.822Z,12.07
2019-01-11T09:48:07.238Z,11.85
2019-01-11T09:50:36.620Z,11.33
2019-01-11T09:53:05.976Z,12.50
2019-01-11T09:55:35.353Z,10.78
2019-01-11T09:58:06.380Z,12.27
2019-01-11T10:00:35.808Z,11.20
2019-01-11T10:03:17.772Z,12.07
2019-01-11T10:05:37.777Z,11.13
2019-01-11T10:08:07.150Z,11.80
2019-01-11T10:10:36.530Z,11.07
2019-01-11T10:13:05.916Z,10.63
2019-01-11T10:15:35.476Z,14.57
2019-01-11T10:18:05.169Z,12.30
2019-01-11T10:20:34.561Z,12.40
2019-01-11T10:23:03.947Z,11.50
2019-01-11T10:25:33.386Z,17.43
2019-01-11T10:28:02.781Z,12.37
2019-01-11T10:30:32.160Z,12.53
2019-01-11T10:33:01.568Z,11.43
2019-01-11T10:35:31.300Z,13.20
2019-01-11T10:38:00.740Z,12.23
2019-01-11T10:40:30.569Z,14.17
2019-01-11T10:43:00.613Z,12.70
2019-01-11T10:45:30.373Z,13.43
2019-01-11T10:47:59.829Z,14.40
2019-01-11T10:50:31.723Z,13.50
2019-01-11T10:53:01.132Z,18.27
2019-01-11T10:55:30.523Z,14.87
2019-01-11T10:57:59.922Z,15.75
2019-01-11T11:00:30.188Z,16.32
2019-01-11T11:02:59.903Z,17.53
2019-01-11T11:05:29.372Z,19.03
2019-01-11T11:07:58.840Z,19.53
2019-01-11T11:10:29.761Z,14.73
2019-01-11T11:12:59.162Z,20.62
2019-01-11T11:15:28.552Z,17.03
2019-01-11T11:17:57.935Z,17.03
2019-01-11T11:20:27.323Z,20.97
2019-01-11T11:22:57.265Z,17.33
2019-01-11T11:25:26.976Z,17.17
2019-01-11T11:27:56.335Z,20.33
2019-01-11T11:30:41.627Z,17.27
2019-01-11T11:33:12.910Z,18.77
2019-01-11T11:35:42.675Z,20.75
2019-01-11T11:38:12.296Z,21.10
2019-01-11T11:40:43.301Z,21.37
2019-01-11T11:43:12.677Z,21.82
2019-01-11T11:45:42.796Z,19.43
2019-01-11T11:48:12.171Z,19.27
2019-01-11T11:50:41.828Z,23.63
2019-01-11T11:53:11.452Z,18.80
2019-01-11T11:55:40.840Z,22.37
2019-01-11T11:58:10.471Z,25.33
2019-01-11T12:00:39.954Z,24.80
2019-01-11T12:03:10.331Z,25.53
2019-01-11T12:05:39.692Z,26.50
2019-01-11T12:08:10.731Z,29.13
2019-01-11T12:10:40.093Z,28.63
2019-01-11T12:13:09.509Z,26.65
2019-01-11T12:15:38.899Z,28.20
2019-01-11T12:18:08.680Z,27.40
2019-01-11T12:20:38.811Z,35.20
2019-01-11T12:23:08.252Z,28.60
2019-01-11T12:25:37.729Z,27.07
2019-01-11T12:28:08.335Z,31.30
2019-01-11T12:30:37.759Z,27.80
2019-01-11T12:33:09.354Z,28.97
2019-01-11T12:35:38.348Z,25.10
2019-01-11T12:38:13.518Z,29.47
2019-01-11T12:40:39.102Z,24.60
2019-01-11T12:43:08.469Z,24.57
2019-01-11T12:45:37.915Z,29.52
2019-01-11T12:48:07.285Z,25.10
2019-01-11T12:50:36.652Z,25.70
2019-01-11T12:53:06.067Z,25.87
2019-01-11T12:55:35.470Z,29.87
2019-01-11T12:58:04.909Z,24.90
2019-01-11T13:00:35.696Z,24.13
2019-01-11T13:03:05.114Z,29.18
2019-01-11T13:05:34.499Z,29.03
2019-01-11T13:08:03.875Z,25.67
2019-01-11T13:10:33.318Z,28.83
2019-01-11T13:13:02.720Z,29.27
2019-01-11T13:15:32.097Z,30.47
2019-01-11T13:18:01.768Z,32.43
2019-01-11T13:20:31.144Z,32.00
2019-01-11T13:23:00.532Z,30.73
2019-01-11T13:25:32.207Z,30.57
2019-01-11T13:28:01.031Z,32.90
2019-01-11T13:30:32.566Z,24.53
2019-01-11T13:33:02.222Z,24.23
2019-01-11T13:35:31.604Z,24.00
2019-01-11T13:38:01.511Z,18.10
2019-01-11T13:40:30.961Z,20.00
2019-01-11T13:43:00.359Z,23.47
2019-01-11T13:45:30.275Z,19.90
2019-01-11T13:47:59.727Z,20.50
2019-01-11T13:50:35.241Z,21.60
2019-01-11T13:53:06.421Z,22.17
2019-01-11T13:55:35.819Z,19.15
2019-01-11T13:58:05.686Z,21.83
2019-01-11T14:00:35.429Z,19.33
2019-01-11T14:03:05.234Z,23.70
2019-01-11T14:05:34.629Z,27.00
2019-01-11T14:08:04.097Z,28.57
2019-01-11T14:10:34.616Z,27.27
2019-01-11T14:13:04.342Z,27.40
2019-01-11T14:15:34.043Z,29.30
2019-01-11T14:18:03.498Z,27.83
2019-01-11T14:20:35.680Z,27.00
2019-01-11T14:23:05.427Z,25.87
2019-01-11T14:25:34.783Z,31.07
2019-01-11T14:28:04.314Z,32.63
2019-01-11T14:30:33.949Z,30.93
2019-01-11T14:33:03.515Z,28.33
2019-01-11T14:35:32.884Z,30.92
2019-01-11T14:38:04.341Z,28.23
2019-01-11T14:40:33.738Z,31.20
2019-01-11T14:43:04.650Z,29.43
2019-01-11T14:45:34.167Z,27.00
2019-01-11T14:48:03.661Z,28.07
2019-01-11T14:50:33.101Z,30.53
2019-01-11T14:53:02.602Z,30.60
2019-01-11T14:55:31.981Z,34.13
2019-01-11T14:58:01.693Z,30.63
2019-01-11T15:00:31.078Z,32.67
2019-01-11T15:03:00.495Z,35.90
2019-01-11T15:05:29.833Z,31.93
2019-01-11T15:08:18.828Z,31.77
2019-01-11T15:10:48.203Z,32.03
2019-01-11T15:13:17.916Z,28.65
2019-01-11T15:15:47.307Z,33.43
2019-01-11T15:18:16.681Z,31.20
2019-01-11T15:20:46.064Z,28.13
2019-01-11T15:23:15.738Z,24.60
2019-01-11T15:25:45.478Z,27.30
2019-01-11T15:28:14.863Z,27.47
2019-01-11T15:30:45.528Z,22.82
2019-01-11T15:33:14.919Z,26.33
2019-01-11T15:35:44.623Z,24.25
2019-01-11T15:38:14.182Z,23.23
2019-01-11T15:40:43.900Z,24.53
2019-01-11T15:43:13.498Z,23.60
2019-01-11T15:45:43.140Z,28.85
2019-01-11T15:48:16.064Z,24.60
2019-01-11T15:50:52.176Z,22.43
2019-01-11T15:53:21.953Z,25.13
2019-01-11T15:55:51.629Z,26.45
2019-01-11T15:58:21.224Z,23.22
2019-01-11T16:00:50.614Z,22.20
2019-01-11T16:03:21.600Z,21.20
2019-01-11T16:06:12.167Z,16.23
2019-01-11T16:08:46.153Z,17.13
2019-01-11T16:11:28.779Z,19.43
2019-01-11T16:14:19.331Z,16.87
2019-01-11T16:16:49.625Z,16.93
2019-01-11T16:19:18.990Z,13.85
2019-01-11T16:21:48.374Z,12.60
2019-01-11T16:24:17.745Z,13.47
2019-01-11T16:26:47.126Z,15.80
2019-01-11T16:29:16.498Z,11.68
2019-01-11T16:31:46.122Z,12.67
2019-01-11T16:34:15.505Z,14.50
2019-01-11T16:36:44.889Z,14.35
2019-01-11T16:39:14.540Z,11.93
2019-01-11T16:41:44.168Z,11.27
2019-01-11T16:44:13.810Z,19.07
2019-01-11T16:46:43.184Z,18.57
2019-01-11T16:49:12.553Z,17.70
2019-01-11T16:51:42.272Z,16.10
2019-01-11T16:54:11.636Z,14.43
2019-01-11T16:56:41.076Z,13.83
2019-01-11T16:59:10.459Z,17.80
2019-01-11T17:01:39.910Z,15.37
2019-01-11T17:04:09.604Z,11.80
2019-01-11T17:06:39.052Z,15.37
2019-01-11T17:09:09.638Z,14.43
2019-01-11T17:11:39.024Z,16.12
2019-01-11T17:14:08.463Z,15.70
2019-01-11T17:16:37.850Z,18.52
2019-01-11T17:19:07.229Z,16.87
2019-01-11T17:21:36.610Z,15.50
2019-01-11T17:24:06.670Z,18.70
2019-01-11T17:26:36.046Z,12.82
2019-01-11T17:29:05.499Z,16.93
2019-01-11T17:31:34.870Z,13.17
2019-01-11T17:34:04.599Z,14.70
2019-01-11T17:36:35.291Z,12.25
2019-01-11T17:39:07.705Z,14.47
2019-01-11T17:41:37.376Z,15.60
2019-01-11T17:44:06.908Z,15.00
2019-01-11T17:46:36.543Z,18.65
2019-01-11T17:49:06.020Z,20.13
2019-01-11T17:51:35.395Z,19.27
2019-01-11T17:54:05.330Z,23.90
2019-01-11T17:56:34.967Z,19.13
2019-01-11T17:59:04.678Z,19.97
2019-01-11T18:01:34.058Z,22.57
2019-01-11T18:04:03.488Z,17.67
2019-01-11T18:06:32.849Z,21.77
2019-01-11T18:09:02.238Z,17.27
2019-01-11T18:11:31.608Z,21.00
2019-01-11T18:14:01.264Z,18.67
2019-01-11T18:16:30.893Z,18.63
2019-01-11T18:19:00.267Z,20.23
2019-01-11T18:21:29.683Z,17.00
2019-01-11T18:23:59.407Z,24.40
2019-01-11T18:26:28.785Z,19.30
2019-01-11T18:28:58.173Z,18.37
2019-01-11T18:31:27.545Z,19.30
2019-01-11T18:33:56.984Z,17.10
2019-01-11T18:36:26.360Z,20.20
2019-01-11T18:38:55.997Z,18.00
2019-01-11T18:41:25.379Z,19.00
2019-01-11T18:43:54.769Z,14.15
2019-01-11T18:46:24.155Z,15.77
2019-01-11T18:48:53.527Z,17.30
2019-01-11T18:51:22.904Z,17.13
2019-01-11T18:53:52.281Z,13.60
2019-01-11T18:56:21.655Z,17.97
2019-01-11T18:58:52.428Z,20.30
2019-01-11T19:01:21.802Z,14.40
2019-01-11T19:03:51.197Z,18.23
2019-01-11T19:06:20.595Z,17.53
2019-01-11T19:08:49.982Z,19.03
2019-01-11T19:11:19.356Z,22.47
2019-01-11T19:13:48.747Z,24.60
2019-01-11T19:16:18.378Z,21.05
2019-01-11T19:18:47.759Z,22.63
2019-01-11T19:21:17.379Z,15.23
2019-01-11T19:23:46.748Z,19.40
2019-01-11T19:26:16.136Z,19.70
2019-01-11T19:28:46.644Z,23.55
2019-01-11T19:31:16.021Z,20.30
2019-01-11T19:33:45.412Z,18.07
2019-01-11T19:36:14.798Z,22.77
2019-01-11T19:38:44.171Z,17.97
2019-01-11T19:41:13.883Z,20.10
2019-01-11T19:43:43.307Z,23.00
2019-01-11T19:46:12.686Z,20.60
2019-01-11T19:48:42.070Z,22.10
2019-01-11T19:51:11.441Z,21.50
2019-01-11T19:53:40.829Z,20.43
2019-01-11T19:56:10.292Z,20.07
2019-01-11T19:58:39.670Z,18.40
2019-01-11T20:01:09.209Z,23.80
2019-01-11T20:03:38.564Z,22.80
2019-01-11T20:06:08.462Z,18.30
2019-01-11T20:08:37.928Z,25.93
2019-01-11T20:11:07.347Z,17.93
2019-01-11T20:13:36.709Z,21.12
2019-01-11T20:16:06.241Z,20.62
2019-01-11T20:18:35.621Z,19.80
2019-01-11T20:21:05.172Z,20.03
2019-01-11T20:23:36.954Z,22.22
2019-01-11T20:26:06.666Z,20.80
2019-01-11T20:28:36.041Z,25.60
2019-01-11T20:31:05.533Z,20.43
2019-01-11T20:33:35.128Z,23.77
2019-01-11T20:36:05.153Z,19.60
2019-01-11T20:38:34.522Z,19.23
2019-01-11T20:41:03.927Z,17.53
2019-01-11T20:43:33.302Z,20.43
2019-01-11T20:46:03.255Z,17.90
2019-01-11T20:48:32.855Z,19.57
2019-01-11T20:51:02.236Z,20.57
2019-01-11T20:53:31.675Z,21.13
2019-01-11T20:56:01.054Z,16.17
2019-01-11T20:58:30.447Z,18.50
2019-01-11T21:00:59.892Z,19.43
2019-01-11T21:03:30.037Z,16.65
2019-01-11T21:05:59.401Z,17.57
2019-01-11T21:08:28.774Z,15.83
2019-01-11T21:10:58.159Z,18.82
2019-01-11T21:13:27.527Z,18.67
2019-01-11T21:15:56.904Z,15.07
2019-01-11T21:18:26.342Z,14.87
2019-01-11T21:20:55.710Z,13.77
2019-01-11T21:23:25.105Z,12.73
2019-01-11T21:25:54.457Z,11.60
2019-01-11T21:28:23.829Z,14.53
2019-01-11T21:30:57.274Z,10.90
2019-01-11T21:33:24.562Z,11.90
2019-01-11T21:35:53.935Z,9.90
2019-01-11T21:38:23.328Z,10.40
2019-01-11T21:40:52.696Z,10.40
2019-01-11T21:43:22.067Z,8.60
2019-01-11T21:45:51.440Z,9.85
2019-01-11T21:48:21.774Z,8.83
2019-01-11T21:50:51.225Z,13.33
2019-01-11T21:53:20.947Z,16.20
2019-01-11T21:55:50.326Z,11.70
2019-01-11T21:58:19.712Z,11.70
2019-01-11T22:00:49.245Z,15.47
2019-01-11T22:03:18.621Z,17.57
2019-01-11T22:05:47.996Z,11.17
2019-01-11T22:08:17.808Z,15.47
2019-01-11T22:10:47.181Z,17.80
2019-01-11T22:13:16.636Z,17.07
2019-01-11T22:15:46.021Z,15.87
2019-01-11T22:18:15.394Z,14.93
2019-01-11T22:20:44.763Z,13.50
2019-01-11T22:23:14.203Z,12.28
2019-01-11T22:25:44.721Z,13.43
2019-01-11T22:28:14.127Z,13.53
2019-01-11T22:30:43.735Z,14.47
2019-01-11T22:33:13.115Z,15.23
2019-01-11T22:35:42.540Z,14.00
2019-01-11T22:38:11.911Z,16.60
2019-01-11T22:40:41.286Z,13.90
2019-01-11T22:43:10.662Z,15.80
2019-01-11T22:45:40.027Z,10.07
2019-01-11T22:48:09.415Z,14.13
2019-01-11T22:50:38.782Z,18.95
2019-01-11T22:53:08.166Z,16.17
2019-01-11T22:55:49.515Z,11.60
2019-01-11T22:58:19.136Z,9.53
2019-01-11T23:00:55.751Z,12.63
2019-01-11T23:03:32.897Z,10.53
2019-01-11T23:06:12.473Z,11.13
2019-01-11T23:08:43.071Z,12.93
2019-01-11T23:11:25.924Z,11.70
2019-01-11T23:13:55.302Z,9.33
2019-01-11T23:16:29.904Z,11.57
2019-01-11T23:18:59.625Z,12.03
2019-01-11T23:21:28.989Z,11.67
2019-01-11T23:23:58.364Z,9.37
2019-01-11T23:26:27.733Z,13.50
2019-01-11T23:28:57.106Z,11.90
2019-01-11T23:31:26.490Z,14.40
2019-01-11T23:33:55.874Z,12.03
2019-01-11T23:36:25.239Z,17.00
2019-01-11T23:38:54.949Z,12.17
2019-01-11T23:41:24.320Z,15.63
2019-01-11T23:43:53.699Z,13.90
2019-01-11T23:46:23.329Z,13.13
2019-01-11T23:48:52.963Z,17.50
2019-01-11T23:51:22.343Z,10.50
2019-01-11T23:53:51.712Z,14.33
2019-01-11T23:56:21.086Z,12.78
2019-01-11T23:58:50.459Z,14.40
